Letzte erfasste Runde: Benni Galle - 1:44.063 - Audi R8 LMS Evo (2019) - Daytona International Speedway - Road Course - 18.08.2022 02:15:00
Platz Datum Fahrer Zeit Diff S1 S2 S3 Fahrzeug Session KG Reifen Runden
- - Theoretische Bestzeit 1:35.786 - 28.445 35.185 32.156 - - - - -
1 03.06.2022 Leon Harhoff 1:45.195 - 34.927 37.949 32.319 Praga R1 Evo Race 0 S 55
2 03.06.2022 Max Bischoff 1:45.212 0.017 34.932 38.124 32.156 Praga R1 Evo Race 0 S 59
3 03.06.2022 Benni Galle 1:45.511 0.316 35.109 38.056 32.346 Praga R1 Evo Race 0 S 63
4 03.06.2022 Andreas Roggel 1:45.542 0.347 34.938 38.123 32.481 Praga R1 Evo Race 0 S 41
5 03.06.2022 Carsten Hain 1:45.556 0.361 34.843 38.363 32.350 Praga R1 Evo Race 0 S 66
6 03.06.2022 Max Scheidter 1:46.007 0.812 35.128 38.354 32.525 Praga R1 Evo Race 0 S 60
7 03.06.2022 Bernhard Schwab 1:46.141 0.946 35.338 38.362 32.441 Praga R1 Evo Race 0 S 40
8 03.06.2022 Florian Raupach 1:46.472 1.277 35.224 38.547 32.701 Praga R1 Evo Race 0 S 55
9 13.07.2022 Tobias Fleischmann 1:46.552 1.357 29.717 35.185 41.650 Porsche 992 GT3 Cup Race 0 27
10 13.07.2022 Daniel Amhof 1:46.720 1.525 29.645 35.512 41.562 Porsche 992 GT3 Cup Race 0 15
11 13.07.2022 Florian Becker 1:46.780 1.585 29.907 35.242 41.630 Porsche 992 GT3 Cup Race 0 21
12 03.06.2022 Patrick Neubert 1:46.827 1.632 35.456 38.736 32.635 Praga R1 Evo Race 0 S 2
13 03.06.2022 Fabian Wilke 1:47.046 1.851 35.455 38.803 32.788 Praga R1 Evo Race 0 S 48
14 03.06.2022 Joerg Goebel 1:47.083 1.888 35.618 38.336 33.129 Praga R1 Evo Race 0 S 55
15 13.07.2022 Nick Balzar 1:47.142 1.947 29.820 35.565 41.757 Porsche 992 GT3 Cup Race 0 15
16 13.07.2022 Patrick Kreutz 1:47.365 2.170 29.882 35.637 41.845 Porsche 992 GT3 Cup Race 0 28
17 13.07.2022 Christian Nesmiyan 1:47.580 2.385 29.752 35.945 41.882 Porsche 992 GT3 Cup Race 0 19
18 13.07.2022 Marvin Weil 1:47.730 2.535 29.935 35.710 42.085 Porsche 992 GT3 Cup Race 0 4
19 13.07.2022 Marco Küttelwesch 1:47.802 2.607 30.197 35.555 42.050 Porsche 992 GT3 Cup Race 0 17
20 13.07.2022 Goe Stettler 1:47.825 2.630 30.245 35.827 41.752 Porsche 992 GT3 Cup Race 0 53
21 13.07.2022 Andre Unger 1:47.925 2.730 29.770 36.095 42.060 Porsche 992 GT3 Cup Race 0 29
22 13.07.2022 Oliver Kern 1:48.217 3.022 29.980 36.105 42.132 Porsche 992 GT3 Cup Race 0 27
23 13.07.2022 Niklas Bareuther 1:48.260 3.065 30.277 35.890 42.092 Porsche 992 GT3 Cup Race 0 25
24 13.07.2022 Manuel Rauch 1:48.322 3.127 30.055 35.722 42.545 Porsche 992 GT3 Cup Race 0 22
25 13.07.2022 Florian Graf 1:48.352 3.157 30.257 35.910 42.185 Porsche 992 GT3 Cup Race 0 29
26 13.07.2022 Marcel Rödiger 1:48.835 3.640 30.070 36.575 42.190 Porsche 992 GT3 Cup Race 0 21
27 13.07.2022 Maurice Hoogenhout 1:48.850 3.655 29.982 36.385 42.482 Porsche 992 GT3 Cup Race 0 22
28 13.07.2022 Andreas Wagner 1:49.025 3.830 29.985 36.335 42.705 Porsche 992 GT3 Cup Race 0 28
29 13.07.2022 Albert Gorocz 1:49.032 3.837 30.332 36.195 42.505 Porsche 992 GT3 Cup Race 0 27
30 03.06.2022 Ricco Steinbrücker 1:49.244 4.049 36.759 39.163 33.322 KTM X-BOW GT4 Cup Race 0 H 54
31 03.06.2022 Maximilian Maass 1:49.284 4.089 36.707 39.169 33.408 KTM X-BOW GT4 Cup Race 0 H 58
32 03.06.2022 Noah Cebulla 1:49.301 4.106 36.820 39.362 33.119 KTM X-BOW GT4 Cup Race 0 H 54
33 03.06.2022 Marc Pfannkuche 1:49.599 4.404 36.753 39.411 33.435 KTM X-BOW GT4 Cup Race 0 H 58
34 13.07.2022 Frederic Poschet 1:49.837 4.642 30.432 36.590 42.815 Porsche 992 GT3 Cup Race 0 22
35 13.07.2022 Michael Hartmann 1:50.042 4.847 30.372 36.965 42.705 Porsche 992 GT3 Cup Race 0 65
36 03.06.2022 Borris Golinski 1:50.333 5.138 37.168 39.577 33.588 KTM X-BOW GT4 Cup Race 0 H 59
37 13.07.2022 Robin Hoffmann 1:50.425 5.230 30.847 36.687 42.890 Porsche 992 GT3 Cup Race 0 18
38 06.07.2022 Philipp apeltauer 1:52.472 7.277 30.695 37.582 44.195 Porsche 992 GT3 Cup Race 0 10
39 03.06.2022 Felix Erbes 2:00.006 14.811 40.329 43.114 36.563 BMW M240i Cup Race 0 M 52
40 03.06.2022 Nico Kollmer 2:00.324 15.129 40.332 43.289 36.703 BMW M240i Cup Race 0 M 54
41 03.06.2022 Carlo Pedersoli 2:00.375 15.180 40.405 43.258 36.712 BMW M240i Cup Race 0 M 58
42 03.06.2022 Fabian Kuenert 2:00.674 15.479 40.475 43.488 36.711 BMW M240i Cup Race 0 M 54
43 03.06.2022 Sven Maser 2:00.751 15.556 40.453 43.376 36.922 BMW M240i Cup Race 0 M 50
44 03.06.2022 Marc Bechmann 2:00.769 15.574 40.408 43.506 36.855 BMW M240i Cup Race 0 M 50
45 03.06.2022 Ronny Fiebig 2:00.844 15.649 40.546 43.389 36.909 BMW M240i Cup Race 0 M 50
46 03.06.2022 Sebastian Ponath 2:00.850 15.655 40.448 43.642 36.760 BMW M240i Cup Race 0 M 53
47 03.06.2022 Fabian Kannewischer 2:01.144 15.949 40.778 43.543 36.823 BMW M240i Cup Race 0 M 55
48 03.06.2022 Marcus Radlach 2:01.176 15.981 40.671 43.586 36.919 BMW M240i Cup Race 0 M 45
49 22.06.2022 Max Staude 2:01.176 15.981 28.523 45.453 47.200 Audi RS3 TCR Race 0 Wet 29
50 22.06.2022 Maik Neumann 2:01.215 16.020 28.447 45.468 47.300 Audi RS3 TCR Race 0 Wet 25
51 22.06.2022 Rainer Deter 2:01.251 16.056 28.515 45.457 47.279 Volkswagen Golf GTI TCR Race 0 Endura 29
52 03.06.2022 Sebastian Tobe 2:01.338 16.143 40.810 43.695 36.833 BMW M240i Cup Race 0 M 53
53 03.06.2022 Andreas Wagner 2:01.515 16.320 40.622 44.123 36.770 BMW M240i Cup Race 0 M 55
54 22.06.2022 Sten Grosse 2:01.556 16.361 28.445 46.016 47.095 Honda Civic TCR Race 0 Endura 29
55 22.06.2022 Marius Maniek 2:01.567 16.372 28.478 45.996 47.093 Seat Cupra TCR Race 0 Endura 29
56 22.06.2022 Alexander Haider 2:01.641 16.446 28.620 45.673 47.348 Audi RS3 TCR Race 0 Wet 29
57 22.06.2022 Kalle Grabowski 2:01.925 16.730 28.449 46.148 47.327 Audi RS3 TCR Race 0 Wet 29
58 03.06.2022 Jörg Sulies 2:02.183 16.988 40.833 44.288 37.062 BMW M240i Cup Race 0 M 51
59 22.06.2022 Alex Gielczynski 2:02.467 17.272 28.597 45.988 47.882 Audi RS3 TCR Race 0 Wet 29
60 22.06.2022 Ronny Moegel 2:02.659 17.464 28.791 45.958 47.910 Seat Cupra TCR Race 0 Wet 29
61 22.06.2022 Enrico Lange 2:03.373 18.178 28.649 46.209 48.515 Seat Cupra TCR Race 0 Endura 28
62 22.06.2022 Bjoern Wahlmeier 2:03.622 18.427 28.862 46.487 48.273 Audi RS3 TCR Race 0 Wet 29
63 22.06.2022 Thomas Grube 2:04.183 18.988 30.058 46.232 47.894 Seat Cupra TCR Race 0 Endura 28

SERVER

0 / 61
virtualracing.org #1 GTM
Training 1Lime Rock Park -- Uphill Chicane
0 / 81
virtualracing.org #3 FS
Training 1Oulton Park International NC
0 / 81
virtualracing.org #4 LSM
Training 1Spa-Francorchamps Endurance
0 / 34
virtualracing.org #5 VRF1S
Training 1Zandvoort 2021
0 / 34
virtualracing.org #6 VRCS
Training 1Magny-Cours
0 / 81
virtualracing.org #P1 BTCC
Training 1Donington GP
0 / 81
virtualracing.org #P2 CA
Training 1Oulton Park Island
0 / 34
virtualracing.org #P3 Mini
Training 1Silverstone Grand Prix
0 / 33
virtualracing.org #P4 IR18
Training 1Sebring -- School
0/31
virtualracing.org#4 GTC Training Standard
TrainingDaytona International Speedway - Road Course
0/31
virtualracing.org#5 GTC Training A
TrainingDaytona International Speedway - Road Course
0/24
virtualracing.org#30 ALT Training
TrainingFuji Speedway - Grand Prix Circuit 1968
0/32
virtualracing.org#33 GTC Starttest
unbekanntDaytona International Speedway - Road Course